Terminal Aerodrome Forecast
Issued by NWS

Home | Current Version | Previous Version | Text Only | Print | Product List | Glossary On
Versions: 1 2 3 4 5 6 7 8 9 10 11 12 13 14 15
000
FTUS43 KDTX 281720
TAFDET
TAF
KDET 281720Z 2818/2918 07011KT P6SM SCT040 SCT120
      TEMPO 2818/2820 6SM -SHRA BKN045
     FM282000 02014KT P6SM FEW050 SCT100
     FM290200 02008KT P6SM SKC=

USA.gov is the U.S. government's official web portal to all federal, state and local government web resources and services.